Brasstown, NC

3:56 AM EDT on October 25, 2014 (GMT -0400)
Andrews | Change Station
CLOSE
Current Station
Airport
Location: Andrews,
Elevation: 1696 ft
Nearby Weather Stations

Elev 1696 ft 35.20 °N, 83.86 °W | Updated 21 minutes ago

Clear
Clear
36 °F
Feels Like 36 °F
N
0
Wind Variable Wind from North

Today
High -- | Low -- °F
--% Chance of Precip.
Yesterday
High -- | Low -- °F
Precip. -- in
7:50 AM 6:48 PM
New Moon, 2% visible
Pressure 30.08 in
Visibility 10.0 miles
Clouds Clear
Dew Point 36 °F
Humidity 99%
Rainfall 0.00 in
Snow Depth Not available.
UV 0 out of 12
Pollen .90 out of 12
Air Quality Not available.
Flu Activity Local Activity
METAR KRHP 250735Z AUTO 00000KT 10SM CLR 02/02 A3008 RMK AO2 T00220021

More Conditions Fewer Conditions

Pressure 30.08 in
Visibility 10.0 miles
Clouds Clear
Dew Point 36 °F
Humidity 99%
Rainfall 0.00 in
Snow Depth Not available.
UV 0 out of 12
Pollen .90 out of 12
Air Quality Not available.
Flu Activity Local Activity
METAR KRHP 250735Z AUTO 00000KT 10SM CLR 02/02 A3008 RMK AO2 T00220021

More Conditions Fewer Conditions

10-Day Weather Forecast

Almanac

Astronomy

Oct. 25, 2014 Rise Set
Actual Time 7:50 AM EDT 6:48 PM EDT
Civil Twilight 7:24 AM EDT 7:14 PM EDT
Nautical Twilight 6:54 AM EDT 7:44 PM EDT
Astronomical Twilight 6:25 AM EDT 8:13 PM EDT
Moon 9:25 AM EDT 8:14 PM EDT
Length of Visible Light 11h 50m
Length of Day
10h 58m
Tomorrow will be 2m 1s shorter.
New Moon, 2% of the Moon is Illuminated
Today
New Moon
Oct 30
First Quarter
Nov 6
Full
Nov 14
Last Quarter
Nov 22
New

Today's Extremes

State Highs State Lows

Community

WunderPhotos

Upload Photos

1,764,791 photos uploaded!

Nearby

Snow Depth

Station Depth Elevation
No new snow has been reported.

Earthquake Activity

City Distance Mag. Time & Date
No recent earthquake activity has been reported nearby.
Minimum magnitude displayed is 2.5.

Coastal Water Temperatures

Place Temperature
No Stations Reporting

Nearby Weather Stations